Time;durP1;ratioP1;P1;durP2;ratioP2;P2;SDS_P1;SDS_P2;PMS_P1;PMS_P2;Temp;Humidity;BMP_temperature;BMP_pressure;BME280_temperature;BME280_humidity;BME280_pressure;Samples;Min_cycle;Max_cycle;Signal;HPM_P1;HPM_P2
2023/11/07 00:00:19;;;;;;;7.57;2.90;;;;;;;;;;5125682;28;20547;-79
2023/11/07 00:02:48;;;;;;;6.27;2.60;;;;;;;;;;5118123;28;20514;-82
2023/11/07 00:05:15;;;;;;;7.87;2.50;;;;;;;;;;5120243;28;20462;-81
2023/11/07 00:07:43;;;;;;;8.00;2.60;;;;;;;;;;5118058;28;20462;-80
2023/11/07 00:10:11;;;;;;;5.90;2.27;;;;;;;;;;5120927;28;20470;-82
2023/11/07 00:12:39;;;;;;;11.00;3.93;;;;;;;;;;5119405;28;20454;-82
2023/11/07 00:15:06;;;;;;;6.50;2.90;;;;;;;;;;5122456;28;20454;-82
2023/11/07 00:17:36;;;;;;;7.17;2.77;;;;;;;;;;5124851;28;20752;-81
2023/11/07 00:20:15;;;;;;;7.77;3.30;;;;;;;;;;5119744;28;20442;-81
2023/11/07 00:22:42;;;;;;;9.60;3.27;;;;;;;;;;5128075;28;20554;-81
2023/11/07 00:25:10;;;;;;;6.33;3.13;;;;;;;;;;5125695;28;20692;-81
2023/11/07 00:27:38;;;;;;;9.17;3.10;;;;;;;;;;5125420;28;20478;-80
2023/11/07 00:30:09;;;;;;;8.20;3.30;;;;;;;;;;5124542;28;20527;-82
2023/11/07 00:32:38;;;;;;;11.43;3.30;;;;;;;;;;5123793;28;20846;-80
2023/11/07 00:35:06;;;;;;;6.97;3.37;;;;;;;;;;5126990;28;20450;-82
2023/11/07 00:37:34;;;;;;;11.20;4.00;;;;;;;;;;5130361;28;20451;-79
2023/11/07 00:40:09;;;;;;;6.13;3.80;;;;;;;;;;5130750;28;20453;-81
2023/11/07 00:42:37;;;;;;;7.07;3.77;;;;;;;;;;5127867;28;20521;-81
2023/11/07 00:45:08;;;;;;;5.03;2.90;;;;;;;;;;5127339;28;20555;-83
2023/11/07 00:47:35;;;;;;;11.70;4.00;;;;;;;;;;5127748;28;20489;-82
2023/11/07 00:50:12;;;;;;;11.77;3.47;;;;;;;;;;5127146;28;20518;-82
2023/11/07 00:52:39;;;;;;;17.00;4.10;;;;;;;;;;5132681;28;20553;-82
2023/11/07 00:55:07;;;;;;;7.33;3.30;;;;;;;;;;5128588;28;20443;-83
2023/11/07 00:57:35;;;;;;;8.10;3.23;;;;;;;;;;5130286;28;20886;-82
2023/11/07 01:00:07;;;;;;;8.60;4.10;;;;;;;;;;5129762;28;20877;-81
2023/11/07 01:02:38;;;;;;;7.33;3.30;;;;;;;;;;5131254;28;20598;-81
2023/11/07 01:05:13;;;;;;;7.00;4.17;;;;;;;;;;5137621;28;20486;-81
2023/11/07 01:07:44;;;;;;;5.97;2.83;;;;;;;;;;5137236;28;20510;-81
2023/11/07 01:10:14;;;;;;;8.17;3.57;;;;;;;;;;5130638;28;20897;-83
2023/11/07 01:12:42;;;;;;;9.10;3.97;;;;;;;;;;5128439;28;20496;-82
2023/11/07 01:15:13;;;;;;;12.30;4.53;;;;;;;;;;5128138;28;20470;-81
2023/11/07 01:17:40;;;;;;;5.60;3.33;;;;;;;;;;5129211;28;20515;-82
2023/11/07 01:20:10;;;;;;;10.30;4.07;;;;;;;;;;5129502;28;20457;-82
2023/11/07 01:22:39;;;;;;;9.80;3.53;;;;;;;;;;5133128;28;20473;-80
2023/11/07 01:25:07;;;;;;;6.80;3.37;;;;;;;;;;5130869;28;20490;-81
2023/11/07 01:27:35;;;;;;;6.43;3.63;;;;;;;;;;5131801;28;20469;-80
2023/11/07 01:30:20;;;;;;;6.70;4.17;;;;;;;;;;5134028;28;20450;-81
2023/11/07 01:32:49;;;;;;;6.23;3.67;;;;;;;;;;5136949;27;20481;-83
2023/11/07 01:35:17;;;;;;;7.90;4.50;;;;;;;;;;5148360;27;20495;-82
2023/11/07 01:37:46;;;;;;;6.63;3.43;;;;;;;;;;5145068;27;20450;-81
2023/11/07 01:40:16;;;;;;;5.60;4.13;;;;;;;;;;5149553;27;20806;-82
2023/11/07 01:42:45;;;;;;;9.00;4.23;;;;;;;;;;5147801;27;20453;-81
2023/11/07 01:45:16;;;;;;;5.40;3.53;;;;;;;;;;5147508;27;20558;-81
2023/11/07 01:47:45;;;;;;;6.47;3.93;;;;;;;;;;5153534;27;20464;-83
2023/11/07 01:50:19;;;;;;;10.77;4.10;;;;;;;;;;5152192;27;20472;-83
2023/11/07 01:52:48;;;;;;;9.83;4.23;;;;;;;;;;5150138;27;20433;-82
2023/11/07 01:55:17;;;;;;;10.47;5.03;;;;;;;;;;5148561;27;20473;-82
2023/11/07 01:57:45;;;;;;;8.20;3.87;;;;;;;;;;5149213;27;20740;-83
2023/11/07 02:00:16;;;;;;;10.40;4.57;;;;;;;;;;5149027;27;20450;-80
2023/11/07 02:02:44;;;;;;;7.07;3.70;;;;;;;;;;5150986;27;20457;-81
2023/11/07 02:05:11;;;;;;;12.40;5.50;;;;;;;;;;5151071;27;20503;-84
2023/11/07 02:07:39;;;;;;;9.40;3.93;;;;;;;;;;5151513;27;20525;-82
2023/11/07 02:10:27;;;;;;;9.67;5.27;;;;;;;;;;5148618;27;20833;-81
2023/11/07 02:12:56;;;;;;;10.03;3.17;;;;;;;;;;5152115;27;20466;-79
2023/11/07 02:15:26;;;;;;;10.00;3.33;;;;;;;;;;5149473;27;20522;-82
2023/11/07 02:17:53;;;;;;;11.23;3.80;;;;;;;;;;5149219;27;20869;-81
2023/11/07 02:20:21;;;;;;;12.63;4.33;;;;;;;;;;5151820;27;20510;-83
2023/11/07 02:22:49;;;;;;;9.93;4.20;;;;;;;;;;5133910;27;20500;-81
2023/11/07 02:25:19;;;;;;;7.97;3.40;;;;;;;;;;5151418;27;20465;-81
2023/11/07 02:27:47;;;;;;;5.63;2.63;;;;;;;;;;5129608;27;20446;-81
2023/11/07 02:30:18;;;;;;;9.63;4.33;;;;;;;;;;5153080;27;20450;-81
2023/11/07 02:32:46;;;;;;;6.93;4.00;;;;;;;;;;5145825;27;20485;-81
2023/11/07 02:35:14;;;;;;;7.23;4.43;;;;;;;;;;5150961;27;20502;-81
2023/11/07 02:37:41;;;;;;;6.83;3.27;;;;;;;;;;5147721;27;20442;-81
2023/11/07 02:40:16;;;;;;;7.73;3.40;;;;;;;;;;5150135;27;20513;-83
2023/11/07 02:42:45;;;;;;;8.20;3.00;;;;;;;;;;5154741;27;20541;-82
2023/11/07 02:45:16;;;;;;;8.33;3.97;;;;;;;;;;5153024;27;20489;-82
2023/11/07 02:47:44;;;;;;;12.60;4.63;;;;;;;;;;5148994;27;20483;-82
2023/11/07 02:50:11;;;;;;;12.43;4.70;;;;;;;;;;5151598;27;20895;-82
2023/11/07 02:52:42;;;;;;;6.23;4.03;;;;;;;;;;5149029;27;20442;-83
2023/11/07 02:55:09;;;;;;;4.83;3.83;;;;;;;;;;5149448;27;20484;-83
2023/11/07 02:57:37;;;;;;;8.43;4.23;;;;;;;;;;5150773;27;20450;-82
2023/11/07 03:00:10;;;;;;;6.10;3.33;;;;;;;;;;5149069;27;20473;-81
2023/11/07 03:02:39;;;;;;;7.53;3.53;;;;;;;;;;5150449;27;20452;-80
2023/11/07 03:05:08;;;;;;;8.83;4.17;;;;;;;;;;5149815;27;20486;-83
2023/11/07 03:07:36;;;;;;;12.40;4.40;;;;;;;;;;5149313;27;20898;-82
2023/11/07 03:10:10;;;;;;;11.73;4.13;;;;;;;;;;5149943;27;20446;-83
2023/11/07 03:12:37;;;;;;;6.80;3.90;;;;;;;;;;5149427;27;20450;-80
2023/11/07 03:15:05;;;;;;;8.90;4.60;;;;;;;;;;5149555;27;20445;-82
2023/11/07 03:17:34;;;;;;;6.40;3.30;;;;;;;;;;5147158;27;20544;-81
2023/11/07 03:20:08;;;;;;;10.60;3.70;;;;;;;;;;5150942;27;20446;-80
2023/11/07 03:22:36;;;;;;;5.93;3.30;;;;;;;;;;5143853;27;20456;-83
2023/11/07 03:25:04;;;;;;;8.93;3.53;;;;;;;;;;5147446;27;20486;-81
2023/11/07 03:27:31;;;;;;;10.80;3.80;;;;;;;;;;5142364;27;20776;-82
2023/11/07 03:29:59;;;;;;;7.63;4.07;;;;;;;;;;5146663;27;20450;-81
2023/11/07 03:32:27;;;;;;;11.33;4.40;;;;;;;;;;5146982;27;20497;-83
2023/11/07 03:34:57;;;;;;;14.20;4.73;;;;;;;;;;5148809;27;20474;-81
2023/11/07 03:37:25;;;;;;;8.07;3.73;;;;;;;;;;5147658;27;20458;-80
2023/11/07 03:39:52;;;;;;;10.37;3.70;;;;;;;;;;5147953;27;20481;-81
2023/11/07 03:42:20;;;;;;;9.70;3.70;;;;;;;;;;5147690;27;20539;-82
2023/11/07 03:44:47;;;;;;;8.43;3.63;;;;;;;;;;5147611;27;20481;-81
2023/11/07 03:47:17;;;;;;;5.37;3.30;;;;;;;;;;5146321;27;20458;-82
2023/11/07 03:49:45;;;;;;;9.17;3.10;;;;;;;;;;5147369;27;20469;-82
2023/11/07 03:52:14;;;;;;;10.43;5.47;;;;;;;;;;5146442;27;20442;-81
2023/11/07 03:54:41;;;;;;;6.63;4.10;;;;;;;;;;5148560;27;20471;-82
2023/11/07 03:57:09;;;;;;;10.63;3.67;;;;;;;;;;5148967;27;20541;-79
2023/11/07 03:59:46;;;;;;;8.83;4.03;;;;;;;;;;5146668;27;20529;-81
2023/11/07 04:02:13;;;;;;;11.67;5.20;;;;;;;;;;5149018;27;20453;-81
2023/11/07 04:04:41;;;;;;;10.70;4.10;;;;;;;;;;5147462;27;20486;-81
2023/11/07 04:07:08;;;;;;;8.50;4.10;;;;;;;;;;5148025;27;20899;-81
2023/11/07 04:09:40;;;;;;;8.50;3.90;;;;;;;;;;5146485;27;20493;-81
2023/11/07 04:12:08;;;;;;;5.90;3.70;;;;;;;;;;5150147;27;20735;-81
2023/11/07 04:14:36;;;;;;;7.43;3.80;;;;;;;;;;5147524;27;20717;-80
2023/11/07 04:17:04;;;;;;;6.80;3.70;;;;;;;;;;5148030;27;20530;-82
2023/11/07 04:19:33;;;;;;;6.87;3.40;;;;;;;;;;5148843;27;20458;-81
2023/11/07 04:22:04;;;;;;;6.27;3.27;;;;;;;;;;5150855;27;20853;-81
2023/11/07 04:24:31;;;;;;;8.33;3.33;;;;;;;;;;5149653;28;20477;-80
2023/11/07 04:27:01;;;;;;;7.83;3.20;;;;;;;;;;5142888;28;20476;-81
2023/11/07 04:29:28;;;;;;;7.00;4.10;;;;;;;;;;5143950;28;20454;-81
2023/11/07 04:31:57;;;;;;;6.43;3.80;;;;;;;;;;5142678;27;20670;-80
2023/11/07 04:34:25;;;;;;;7.63;2.80;;;;;;;;;;5145578;28;20460;-81
2023/11/07 04:36:53;;;;;;;5.80;2.67;;;;;;;;;;5145805;28;20750;-80
2023/11/07 04:39:20;;;;;;;7.43;4.00;;;;;;;;;;5146833;28;20456;-80
2023/11/07 04:41:48;;;;;;;12.33;3.77;;;;;;;;;;5146142;28;20442;-83
2023/11/07 04:44:17;;;;;;;6.37;3.30;;;;;;;;;;5145748;28;20787;-80
2023/11/07 04:46:44;;;;;;;7.87;4.03;;;;;;;;;;5143366;28;20808;-82
2023/11/07 04:49:13;;;;;;;5.27;2.40;;;;;;;;;;5146984;28;20464;-81
2023/11/07 04:51:41;;;;;;;6.87;3.30;;;;;;;;;;5146892;28;20496;-81
2023/11/07 04:54:09;;;;;;;8.87;3.27;;;;;;;;;;5147248;28;20485;-79
2023/11/07 04:56:36;;;;;;;6.37;2.50;;;;;;;;;;5147969;28;20429;-80
2023/11/07 04:59:08;;;;;;;8.53;3.60;;;;;;;;;;5150162;28;20457;-82
2023/11/07 05:01:37;;;;;;;6.00;3.37;;;;;;;;;;5146903;28;20462;-82
2023/11/07 05:04:04;;;;;;;9.20;2.70;;;;;;;;;;5147415;28;20446;-81
2023/11/07 05:06:32;;;;;;;9.63;4.10;;;;;;;;;;5144733;28;20477;-81
2023/11/07 05:09:00;;;;;;;7.47;3.30;;;;;;;;;;5145615;28;20442;-82
2023/11/07 05:11:28;;;;;;;5.10;2.70;;;;;;;;;;5141540;28;20587;-82
2023/11/07 05:13:55;;;;;;;6.33;3.13;;;;;;;;;;5144116;28;20464;-82
2023/11/07 05:16:23;;;;;;;4.43;2.60;;;;;;;;;;5142116;28;20471;-82
2023/11/07 05:18:57;;;;;;;7.30;3.40;;;;;;;;;;5143741;28;20639;-83
2023/11/07 05:21:25;;;;;;;9.13;3.30;;;;;;;;;;5146104;27;20529;-81
2023/11/07 05:23:52;;;;;;;7.07;3.80;;;;;;;;;;5149501;27;20492;-82
2023/11/07 05:26:22;;;;;;;13.20;3.20;;;;;;;;;;5146374;27;20497;-80
2023/11/07 05:28:49;;;;;;;7.50;3.30;;;;;;;;;;5146106;27;20660;-82
2023/11/07 05:31:17;;;;;;;11.13;3.73;;;;;;;;;;5146852;27;20485;-80
2023/11/07 05:33:45;;;;;;;5.20;2.80;;;;;;;;;;5149719;27;20465;-80
2023/11/07 05:36:15;;;;;;;7.93;3.50;;;;;;;;;;5146649;27;20470;-80
2023/11/07 05:38:47;;;;;;;7.47;2.50;;;;;;;;;;5149110;27;20442;-80
2023/11/07 05:41:16;;;;;;;8.80;2.80;;;;;;;;;;5148453;27;20519;-81
2023/11/07 05:43:44;;;;;;;6.50;3.17;;;;;;;;;;5148853;27;20460;-82
2023/11/07 05:46:11;;;;;;;8.47;2.70;;;;;;;;;;5150100;27;20515;-80
2023/11/07 05:48:39;;;;;;;7.03;2.70;;;;;;;;;;5149830;27;20465;-82
2023/11/07 05:51:07;;;;;;;6.90;3.27;;;;;;;;;;5147646;27;20864;-83
2023/11/07 05:53:38;;;;;;;6.73;2.60;;;;;;;;;;5144138;27;20488;-82
2023/11/07 05:56:06;;;;;;;6.37;2.83;;;;;;;;;;5143665;27;20812;-82
2023/11/07 05:58:34;;;;;;;8.90;3.00;;;;;;;;;;5148276;27;20464;-84
2023/11/07 06:01:02;;;;;;;7.10;2.80;;;;;;;;;;5148034;27;20544;-82
2023/11/07 06:03:29;;;;;;;4.30;2.30;;;;;;;;;;5146787;27;20480;-84
2023/11/07 06:05:57;;;;;;;6.67;2.73;;;;;;;;;;5142328;27;20581;-82
2023/11/07 06:08:24;;;;;;;6.80;2.93;;;;;;;;;;5143327;27;20888;-80
2023/11/07 06:10:53;;;;;;;4.67;2.77;;;;;;;;;;5143579;27;20442;-82
2023/11/07 06:13:21;;;;;;;9.67;3.40;;;;;;;;;;5147292;27;20450;-82
2023/11/07 06:15:48;;;;;;;8.93;3.30;;;;;;;;;;5140586;27;20437;-80
2023/11/07 06:18:21;;;;;;;7.27;3.70;;;;;;;;;;5141386;27;20662;-81
2023/11/07 06:20:49;;;;;;;8.37;3.00;;;;;;;;;;5140799;27;20454;-79
2023/11/07 06:23:17;;;;;;;7.57;3.17;;;;;;;;;;5142851;27;20442;-79
2023/11/07 06:25:45;;;;;;;4.57;3.20;;;;;;;;;;5145083;27;20482;-81
2023/11/07 06:28:15;;;;;;;6.90;3.67;;;;;;;;;;5141929;27;20449;-80
2023/11/07 06:30:42;;;;;;;7.80;3.30;;;;;;;;;;5144348;27;20445;-80
2023/11/07 06:33:10;;;;;;;8.73;3.77;;;;;;;;;;5139131;27;20971;-80
2023/11/07 06:35:37;;;;;;;4.23;2.80;;;;;;;;;;5145684;27;20618;-79
2023/11/07 06:38:05;;;;;;;6.67;3.30;;;;;;;;;;5139790;27;20477;-79
2023/11/07 06:40:34;;;;;;;6.60;2.70;;;;;;;;;;5146433;27;20465;-82
2023/11/07 06:43:03;;;;;;;8.17;4.30;;;;;;;;;;5141672;27;20465;-78
2023/11/07 06:45:32;;;;;;;9.63;3.23;;;;;;;;;;5141163;27;20703;-81
2023/11/07 06:48:00;;;;;;;9.27;3.70;;;;;;;;;;5143612;27;20454;-81
2023/11/07 06:50:27;;;;;;;8.10;3.40;;;;;;;;;;5141106;27;20438;-80
2023/11/07 06:52:55;;;;;;;7.10;3.30;;;;;;;;;;5142915;27;20585;-79
2023/11/07 06:55:24;;;;;;;9.30;2.87;;;;;;;;;;5142480;27;20442;-79
2023/11/07 06:57:52;;;;;;;12.27;4.00;;;;;;;;;;5140250;27;20434;-82
2023/11/07 07:00:21;;;;;;;5.20;2.93;;;;;;;;;;5143382;27;20453;-80
2023/11/07 07:02:50;;;;;;;6.27;3.00;;;;;;;;;;5151389;27;20460;-81
2023/11/07 07:05:17;;;;;;;5.80;3.50;;;;;;;;;;5136174;27;20486;-81
2023/11/07 07:07:44;;;;;;;9.27;3.23;;;;;;;;;;5115402;28;20823;-80
2023/11/07 07:10:14;;;;;;;7.20;3.33;;;;;;;;;;5140949;27;20524;-81
2023/11/07 07:12:42;;;;;;;7.47;2.80;;;;;;;;;;5129058;27;20904;-84
2023/11/07 07:15:10;;;;;;;8.20;2.80;;;;;;;;;;5122283;27;20457;-81
2023/11/07 07:17:38;;;;;;;6.47;2.70;;;;;;;;;;5117977;28;20877;-81
2023/11/07 07:20:14;;;;;;;6.20;2.53;;;;;;;;;;5118639;28;20929;-79
2023/11/07 07:22:42;;;;;;;7.93;2.93;;;;;;;;;;5126877;27;20473;-81
2023/11/07 07:25:15;;;;;;;8.83;3.47;;;;;;;;;;5129581;27;20664;-79
2023/11/07 07:27:45;;;;;;;10.60;4.23;;;;;;;;;;5126407;27;20447;-80
2023/11/07 07:30:20;;;;;;;10.63;3.27;;;;;;;;;;5144794;27;20451;-79
2023/11/07 07:32:47;;;;;;;8.77;3.07;;;;;;;;;;5118388;28;20529;-80
2023/11/07 07:35:20;;;;;;;10.00;3.87;;;;;;;;;;5121126;28;20435;-79
2023/11/07 07:37:51;;;;;;;5.90;3.07;;;;;;;;;;5119384;28;21097;-80
2023/11/07 07:40:24;;;;;;;8.17;3.40;;;;;;;;;;5119716;28;20465;-80
2023/11/07 07:42:53;;;;;;;5.60;2.83;;;;;;;;;;5118328;28;20946;-80
2023/11/07 07:45:21;;;;;;;6.20;2.83;;;;;;;;;;5124959;27;20833;-80
2023/11/07 07:47:48;;;;;;;10.77;3.40;;;;;;;;;;5141625;27;20581;-80
2023/11/07 07:50:21;;;;;;;5.13;2.37;;;;;;;;;;5141718;27;20450;-80
2023/11/07 07:52:54;;;;;;;4.50;2.10;;;;;;;;;;5135008;27;20446;-81
2023/11/07 07:55:22;;;;;;;5.90;2.60;;;;;;;;;;5146523;27;20445;-81
2023/11/07 07:57:50;;;;;;;9.00;2.60;;;;;;;;;;5144018;27;20449;-80
2023/11/07 08:00:24;;;;;;;7.63;2.80;;;;;;;;;;5142339;27;20928;-80
2023/11/07 08:02:53;;;;;;;7.40;3.33;;;;;;;;;;5146023;27;20473;-80
2023/11/07 08:05:40;;;;;;;6.00;3.90;;;;;;;;;;5137878;27;20458;-80
2023/11/07 08:08:27;;;;;;;5.67;2.30;;;;;;;;;;5138976;27;20457;-80
2023/11/07 08:11:04;;;;;;;8.63;3.90;;;;;;;;;;5142872;27;20551;-81
2023/11/07 08:13:35;;;;;;;9.60;4.27;;;;;;;;;;5140224;27;20466;-79
2023/11/07 08:16:06;;;;;;;5.70;4.07;;;;;;;;;;5143470;27;20466;-78
2023/11/07 08:18:34;;;;;;;7.20;2.37;;;;;;;;;;5135600;27;21165;-79
2023/11/07 08:21:28;;;;;;;10.37;3.30;;;;;;;;;;5142124;27;20454;-82
2023/11/07 08:24:03;;;;;;;3.57;2.13;;;;;;;;;;5138292;27;20917;-80
2023/11/07 08:29:30;;;;;;;5.90;2.37;;;;;;;;;;5125296;28;20473;-78
2023/11/07 08:32:00;;;;;;;4.07;2.20;;;;;;;;;;5131751;27;21090;-79
2023/11/07 08:34:32;;;;;;;7.73;2.70;;;;;;;;;;5132817;28;20940;-80
2023/11/07 08:37:04;;;;;;;5.93;2.30;;;;;;;;;;5134836;27;20437;-81
2023/11/07 08:39:33;;;;;;;4.53;2.50;;;;;;;;;;5112232;28;20463;-79
2023/11/07 08:42:04;;;;;;;7.30;3.73;;;;;;;;;;5123395;28;20666;-81
2023/11/07 08:44:36;;;;;;;6.00;2.17;;;;;;;;;;5129999;28;20458;-79
2023/11/07 08:47:06;;;;;;;11.80;4.80;;;;;;;;;;5137533;28;20953;-79
2023/11/07 08:56:15;;;;;;;3.70;2.10;;;;;;;;;;5088134;27;20462;-79
2023/11/07 09:45:09;;;;;;;2.83;1.63;;;;;;;;;;4967382;26;20483;-80
2023/11/07 09:47:38;;;;;;;3.33;2.10;;;;;;;;;;5064615;28;20477;-82
2023/11/07 09:50:10;;;;;;;5.93;2.60;;;;;;;;;;5080642;28;20464;-81
2023/11/07 09:52:40;;;;;;;4.33;2.27;;;;;;;;;;5086092;28;20468;-78
2023/11/07 09:55:10;;;;;;;4.00;2.70;;;;;;;;;;5066381;28;20494;-79
2023/11/07 09:57:42;;;;;;;5.00;1.80;;;;;;;;;;5079834;28;20465;-80
2023/11/07 10:00:19;;;;;;;4.97;2.37;;;;;;;;;;5080116;28;20489;-82
2023/11/07 10:02:49;;;;;;;4.57;2.50;;;;;;;;;;5080074;28;20511;-80
2023/11/07 10:05:18;;;;;;;11.67;2.10;;;;;;;;;;5082471;28;20471;-81
2023/11/07 10:07:51;;;;;;;5.03;2.00;;;;;;;;;;5079176;28;20484;-78
2023/11/07 10:10:21;;;;;;;4.87;2.30;;;;;;;;;;5078358;28;20748;-80
2023/11/07 10:12:52;;;;;;;5.10;1.60;;;;;;;;;;5082463;28;20484;-79
2023/11/07 10:18:12;;;;;;;2.83;1.50;;;;;;;;;;5073940;28;20433;-79
2023/11/07 10:20:54;;;;;;;4.63;1.77;;;;;;;;;;5072621;28;20942;-79
2023/11/07 10:23:47;;;;;;;2.70;1.87;;;;;;;;;;5083822;28;20487;-79
2023/11/07 10:26:27;;;;;;;5.07;1.80;;;;;;;;;;5082806;28;20503;-79
2023/11/07 10:29:13;;;;;;;4.10;1.20;;;;;;;;;;5080175;28;20961;-79
2023/11/07 10:32:10;;;;;;;2.30;1.13;;;;;;;;;;5079456;28;20467;-79
2023/11/07 10:34:41;;;;;;;2.53;1.33;;;;;;;;;;5077920;28;20465;-80
2023/11/07 10:37:15;;;;;;;4.73;1.50;;;;;;;;;;5087848;28;20450;-79
2023/11/07 10:45:09;;;;;;;2.87;1.40;;;;;;;;;;5418799;22;20488;-78
2023/11/07 10:47:40;;;;;;;3.27;1.50;;;;;;;;;;5063245;28;20619;-80
2023/11/07 10:50:27;;;;;;;6.03;1.57;;;;;;;;;;5084276;28;20456;-81
2023/11/07 10:53:18;;;;;;;5.50;1.57;;;;;;;;;;5093313;28;20460;-79
2023/11/07 10:55:53;;;;;;;3.37;1.23;;;;;;;;;;5086165;28;20467;-81
2023/11/07 10:58:23;;;;;;;5.60;1.40;;;;;;;;;;5079456;28;20492;-79
2023/11/07 11:00:56;;;;;;;5.80;1.77;;;;;;;;;;5077578;28;20465;-79
2023/11/07 11:03:26;;;;;;;5.87;2.03;;;;;;;;;;5084194;28;20471;-78
2023/11/07 11:05:54;;;;;;;2.10;1.30;;;;;;;;;;5077755;28;20465;-79
2023/11/07 11:08:25;;;;;;;2.47;1.50;;;;;;;;;;5082852;28;20699;-78
2023/11/07 11:13:31;;;;;;;2.37;2.07;;;;;;;;;;5053798;28;20469;-71
2023/11/07 11:16:06;;;;;;;3.40;1.37;;;;;;;;;;5031949;28;20485;-73
2023/11/07 11:25:18;;;;;;;3.70;1.13;;;;;;;;;;5051461;28;20544;-75
2023/11/07 12:57:31;;;;;;;2.53;1.00;;;;;;;;;;5036142;26;20493;-76
2023/11/07 13:04:02;;;;;;;;;;;;;;;;;;;;;
2023/11/07 13:16:22;;;;;;;3.70;1.13;;;;;;;;;;5035331;28;20448;-78
2023/11/07 13:28:09;;;;;;;2.10;1.00;;;;;;;;;;5043416;28;20608;-74
2023/11/07 13:47:19;;;;;;;3.70;1.20;;;;;;;;;;5096712;28;20486;-82
2023/11/07 13:49:49;;;;;;;5.63;1.20;;;;;;;;;;5106516;28;20447;-81
2023/11/07 13:52:20;;;;;;;2.17;1.20;;;;;;;;;;5113248;28;20492;-79
2023/11/07 13:54:56;;;;;;;2.87;1.10;;;;;;;;;;5114878;28;20509;-80
2023/11/07 14:00:29;;;;;;;2.00;1.10;;;;;;;;;;5089041;28;20436;-83
2023/11/07 14:02:59;;;;;;;9.80;5.43;;;;;;;;;;5100676;28;20471;-82
2023/11/07 14:05:27;;;;;;;2.63;1.50;;;;;;;;;;5099927;28;20504;-81
2023/11/07 14:11:06;;;;;;;2.77;1.17;;;;;;;;;;5093396;28;20567;-81
2023/11/07 14:13:38;;;;;;;3.57;1.20;;;;;;;;;;5089351;28;20482;-81
2023/11/07 14:16:09;;;;;;;7.20;3.83;;;;;;;;;;5108157;28;20551;-80
2023/11/07 14:18:43;;;;;;;2.37;1.77;;;;;;;;;;5113302;28;20451;-81
2023/11/07 14:21:12;;;;;;;1.90;1.10;;;;;;;;;;5102540;28;20427;-79
2023/11/07 14:23:45;;;;;;;3.00;1.20;;;;;;;;;;5102833;28;20440;-82
2023/11/07 14:26:14;;;;;;;2.90;1.50;;;;;;;;;;5102644;28;20451;-80
2023/11/07 14:28:50;;;;;;;4.37;1.80;;;;;;;;;;5101397;28;20492;-82
2023/11/07 14:31:26;;;;;;;3.37;1.60;;;;;;;;;;5099411;28;20528;-80
2023/11/07 14:34:01;;;;;;;5.40;1.50;;;;;;;;;;5100426;28;20499;-81
2023/11/07 14:36:32;;;;;;;2.77;1.50;;;;;;;;;;5104988;28;20457;-82
2023/11/07 14:39:15;;;;;;;4.83;1.60;;;;;;;;;;5103268;28;20475;-81
2023/11/07 14:41:45;;;;;;;2.73;1.43;;;;;;;;;;5099556;28;20480;-80
2023/11/07 14:44:32;;;;;;;3.60;1.90;;;;;;;;;;5097281;28;20485;-81
2023/11/07 14:47:11;;;;;;;4.20;2.13;;;;;;;;;;5094399;28;20519;-79
2023/11/07 14:49:53;;;;;;;2.57;1.30;;;;;;;;;;5111423;28;20501;-81
2023/11/07 14:55:34;;;;;;;2.90;1.30;;;;;;;;;;5094598;28;20458;-80
2023/11/07 14:58:05;;;;;;;2.30;1.30;;;;;;;;;;5093838;28;20475;-80
2023/11/07 15:00:43;;;;;;;3.57;1.50;;;;;;;;;;5104724;28;20820;-81
2023/11/07 15:03:19;;;;;;;4.53;2.00;;;;;;;;;;5105732;28;20488;-81
2023/11/07 15:05:52;;;;;;;7.00;4.60;;;;;;;;;;5093364;28;20595;-81
2023/11/07 15:08:37;;;;;;;4.37;1.90;;;;;;;;;;5081336;28;20565;-78
2023/11/07 15:11:06;;;;;;;4.17;1.73;;;;;;;;;;5084931;28;20460;-81
2023/11/07 15:13:35;;;;;;;3.73;1.63;;;;;;;;;;5081497;28;20487;-78
2023/11/07 15:16:03;;;;;;;3.30;1.40;;;;;;;;;;5063141;28;20461;-79
2023/11/07 15:18:52;;;;;;;2.67;1.30;;;;;;;;;;5079139;28;20474;-81
2023/11/07 15:21:34;;;;;;;3.20;1.40;;;;;;;;;;5070722;28;20491;-79
2023/11/07 15:24:07;;;;;;;3.33;1.87;;;;;;;;;;5069072;28;20504;-80
2023/11/07 15:26:42;;;;;;;3.10;1.63;;;;;;;;;;5079930;28;20460;-80
2023/11/07 15:29:12;;;;;;;7.33;1.60;;;;;;;;;;5071929;28;20453;-80
2023/11/07 15:31:57;;;;;;;3.90;1.50;;;;;;;;;;5078552;28;20559;-81
2023/11/07 15:34:28;;;;;;;4.20;1.70;;;;;;;;;;5070339;28;20465;-81
2023/11/07 15:37:02;;;;;;;2.90;1.80;;;;;;;;;;5082463;28;20464;-80
2023/11/07 15:39:36;;;;;;;3.00;1.87;;;;;;;;;;5071397;28;20441;-80
2023/11/07 15:42:05;;;;;;;4.77;2.07;;;;;;;;;;5076028;28;20456;-81
2023/11/07 15:44:38;;;;;;;4.60;2.17;;;;;;;;;;5082641;28;20900;-80
2023/11/07 15:47:06;;;;;;;5.17;1.90;;;;;;;;;;5076375;28;20568;-79
2023/11/07 15:49:34;;;;;;;2.60;1.87;;;;;;;;;;5073920;28;20465;-79
2023/11/07 15:52:04;;;;;;;4.63;2.07;;;;;;;;;;5078705;28;20950;-80
2023/11/07 15:54:32;;;;;;;6.17;2.40;;;;;;;;;;5080531;28;20867;-80
2023/11/07 15:57:00;;;;;;;3.77;2.20;;;;;;;;;;5074398;28;20504;-80
2023/11/07 15:59:37;;;;;;;4.30;2.50;;;;;;;;;;5072315;28;20471;-80
2023/11/07 16:02:09;;;;;;;3.67;2.50;;;;;;;;;;5068927;28;20458;-79
2023/11/07 16:04:39;;;;;;;3.93;2.60;;;;;;;;;;5069433;28;20570;-81
2023/11/07 16:07:11;;;;;;;2.83;2.53;;;;;;;;;;5082114;28;20492;-80
2023/11/07 16:09:40;;;;;;;7.20;3.17;;;;;;;;;;5098794;28;20456;-79
2023/11/07 16:12:09;;;;;;;5.73;2.60;;;;;;;;;;5096992;28;20460;-79
2023/11/07 16:14:38;;;;;;;2.97;2.33;;;;;;;;;;5092674;28;20519;-80
2023/11/07 16:17:28;;;;;;;4.10;2.23;;;;;;;;;;5081568;28;20464;-78
2023/11/07 16:19:59;;;;;;;6.20;2.30;;;;;;;;;;5086212;28;20467;-79
2023/11/07 16:22:33;;;;;;;5.97;2.73;;;;;;;;;;5093080;28;20459;-78
2023/11/07 16:25:04;;;;;;;4.67;2.30;;;;;;;;;;5093747;28;20459;-81
2023/11/07 16:27:42;;;;;;;4.77;2.10;;;;;;;;;;5073853;28;20479;-80
2023/11/07 16:30:12;;;;;;;7.17;3.00;;;;;;;;;;5093035;28;20761;-81
2023/11/07 16:32:40;;;;;;;3.97;2.77;;;;;;;;;;5094000;28;20770;-79
2023/11/07 16:35:10;;;;;;;7.40;3.70;;;;;;;;;;5091054;28;20613;-80
2023/11/07 16:37:48;;;;;;;4.50;2.70;;;;;;;;;;5082075;28;20463;-80
2023/11/07 16:40:17;;;;;;;6.80;3.30;;;;;;;;;;5080519;28;20469;-80
2023/11/07 16:42:48;;;;;;;7.87;3.30;;;;;;;;;;5089117;28;20594;-79
2023/11/07 16:55:48;;;;;;;6.17;3.73;;;;;;;;;;5178042;22;20292;-79
2023/11/07 16:58:17;;;;;;;8.17;6.20;;;;;;;;;;5118829;28;20467;-80
2023/11/07 17:00:47;;;;;;;3.60;2.53;;;;;;;;;;5116727;28;20505;-82
2023/11/07 17:03:15;;;;;;;6.43;3.10;;;;;;;;;;5117254;28;20451;-80
2023/11/07 17:05:42;;;;;;;4.33;3.03;;;;;;;;;;5115089;28;20455;-80
2023/11/07 17:08:12;;;;;;;5.80;2.80;;;;;;;;;;5115804;28;20486;-80
2023/11/07 17:10:40;;;;;;;11.50;5.70;;;;;;;;;;5120444;28;20451;-79
2023/11/07 17:13:11;;;;;;;6.10;3.70;;;;;;;;;;5119838;28;20485;-81
2023/11/07 17:15:48;;;;;;;5.30;3.60;;;;;;;;;;5115048;28;20533;-78
2023/11/07 17:18:16;;;;;;;8.37;2.83;;;;;;;;;;5121427;28;20469;-80
2023/11/07 17:20:45;;;;;;;4.50;2.67;;;;;;;;;;5118974;27;20616;-80
2023/11/07 17:23:14;;;;;;;6.77;3.20;;;;;;;;;;5112429;28;20463;-79
2023/11/07 17:25:42;;;;;;;5.53;3.43;;;;;;;;;;5113620;28;20483;-78
2023/11/07 17:28:12;;;;;;;4.73;2.43;;;;;;;;;;5103349;28;20794;-80
2023/11/07 17:30:42;;;;;;;6.33;3.20;;;;;;;;;;5102860;28;21079;-81
2023/11/07 17:33:10;;;;;;;4.03;2.63;;;;;;;;;;5108175;28;20529;-77
2023/11/07 17:35:38;;;;;;;4.70;2.77;;;;;;;;;;5106874;28;20498;-81
2023/11/07 17:38:06;;;;;;;6.90;2.40;;;;;;;;;;5121300;28;20455;-81
2023/11/07 17:40:34;;;;;;;6.70;3.53;;;;;;;;;;5123024;28;20546;-79
2023/11/07 17:43:02;;;;;;;6.40;2.60;;;;;;;;;;5114635;28;20444;-81
2023/11/07 17:45:32;;;;;;;7.87;3.10;;;;;;;;;;5117772;28;20459;-80
2023/11/07 17:48:13;;;;;;;4.60;2.50;;;;;;;;;;5113487;28;20482;-80
2023/11/07 17:50:41;;;;;;;4.07;2.13;;;;;;;;;;5105290;28;20470;-80
2023/11/07 17:53:10;;;;;;;3.37;2.07;;;;;;;;;;5127811;28;20530;-79
2023/11/07 17:55:43;;;;;;;3.93;2.40;;;;;;;;;;5122896;28;20490;-79
2023/11/07 17:58:17;;;;;;;3.70;2.13;;;;;;;;;;5126391;28;20460;-78
2023/11/07 18:04:11;;;;;;;4.10;2.63;;;;;;;;;;5106441;28;20450;-80
2023/11/07 18:10:29;;;;;;;5.03;2.33;;;;;;;;;;5118168;28;20487;-78
2023/11/07 18:13:03;;;;;;;5.13;3.13;;;;;;;;;;5123151;28;20461;-79
2023/11/07 18:19:23;;;;;;;4.90;2.73;;;;;;;;;;5067680;28;20479;-78
2023/11/07 18:25:48;;;;;;;;;;;;;;;;;;;;;
2023/11/07 18:28:38;;;;;;;10.00;4.70;;;;;;;;;;5038427;28;20542;-80
2023/11/07 18:31:08;;;;;;;6.67;4.73;;;;;;;;;;5104202;28;20499;-79
2023/11/07 18:33:44;;;;;;;6.70;4.80;;;;;;;;;;5115698;28;20436;-78
2023/11/07 18:36:18;;;;;;;5.20;3.13;;;;;;;;;;5110596;28;20501;-80
2023/11/07 18:38:56;;;;;;;6.33;3.70;;;;;;;;;;5116954;28;20482;-78
2023/11/07 18:41:55;;;;;;;6.63;4.23;;;;;;;;;;5111685;28;20462;-78
2023/11/07 18:44:30;;;;;;;5.80;3.33;;;;;;;;;;5123389;28;20473;-79
2023/11/07 18:46:58;;;;;;;5.00;3.40;;;;;;;;;;5108723;28;20459;-78
2023/11/07 18:49:27;;;;;;;7.93;3.80;;;;;;;;;;5114710;28;20473;-78
2023/11/07 18:51:59;;;;;;;6.20;3.67;;;;;;;;;;5104799;28;20547;-78
2023/11/07 18:54:28;;;;;;;6.10;4.07;;;;;;;;;;5109195;28;20444;-80
2023/11/07 18:56:56;;;;;;;6.53;4.00;;;;;;;;;;5094288;28;20439;-78
2023/11/07 18:59:27;;;;;;;17.17;10.63;;;;;;;;;;5117785;28;20450;-79
2023/11/07 19:01:57;;;;;;;7.10;3.87;;;;;;;;;;5131883;28;20457;-78